Tuesday, August 21, 2018, 1:52 PM GMT
Back to Local

CYFC, Fredericton, N. B.

Location: , , Canada Lat: 45.867
Local Time: 1:52 PM GMT (13:52 GMT) Lon: -66.533
Time Zone: GMT Elev: 55 ft

Show me the last for .
Show Coded

Time T Td Feel RH Dir Speed Gust Alt SLP Vis Weather Sky Remarks
2018-08-21 07:14 52 52 - 100 210° 3 - 30.16 30.17 0 BR BKN002 OVC048 None
2018-08-21 07:00 52 52 - 100 170° 5 - 30.17 30.17 0 BR BKN002 None
2018-08-21 06:51 50 50 48 100 160° 5 - 30.17 30.17 1 BR BKN002 None
2018-08-21 06:48 50 50 49 100 160° 3 - 30.17 30.17 0 BR SCT002 None
2018-08-21 05:31 52 52 - 100 280° 2 - 30.17 30.17 0 BR CLR None
2018-08-21 05:24 54 54 - 100 Variable 2 - 30.17 30.17 1 BR CLR None
2018-08-21 05:16 54 54 - 100 240° 2 - 30.17 30.17 2 BR CLR None
2018-08-21 05:10 55 55 - 100 220° 3 - 30.17 30.17 5 BR CLR None
2018-08-21 05:00 54 54 - 100 210° 3 - 30.17 30.17 9 CLR None
2018-08-21 04:58 54 54 - 100 200° 3 - 30.17 30.17 6 BR CLR None
2018-08-21 04:49 52 52 - 100 200° 3 - 30.17 30.17 4 BR CLR None
2018-08-21 04:41 54 52 - 93 230° 5 - 30.17 30.17 7 CLR None
2018-08-21 04:37 54 52 - 93 220° 5 - 30.17 30.17 3 BR CLR None
2018-08-21 04:36 54 54 - 100 220° 5 - 30.17 30.17 2 BR CLR None
2018-08-21 04:30 55 54 - 93 220° 5 - 30.17 30.17 1 BR CLR None
2018-08-21 04:26 57 55 - 93 220° 3 - 30.17 30.17 2 BR CLR None
2018-08-21 04:25 57 55 - 93 220° 3 - 30.17 30.17 3 BR CLR None
2018-08-21 04:00 55 54 - 93 200° 3 - 30.18 30.18 9 CLR None
2018-08-21 03:00 55 55 - 100 240° 3 - 30.19 30.19 9 CLR None
2018-08-21 02:00 57 57 - 100 240° 2 - 30.19 30.19 9 CLR None
2018-08-21 01:00 61 59 - 93 - Calm - 30.18 30.19 9 CLR None
2018-08-21 00:00 63 61 - 93 250° 2 - 30.17 30.18 9 CLR None
2018-08-20 23:00 70 59 - 68 340° 2 - 30.16 30.16 9 CLR None
2018-08-20 22:00 72 61 76 68 350° 3 - 30.16 30.16 9 CLR None
2018-08-20 21:00 73 57 77 56 Variable 3 - 30.16 30.17 9 CLR None
2018-08-20 20:00 73 59 77 60 Variable 2 - 30.17 30.17 9 CLR None
2018-08-20 19:00 73 59 77 60 Variable 2 - 30.18 30.18 9 CLR None
2018-08-20 18:00 72 59 76 64 Variable 6 - 30.19 30.20 9 CLR None
2018-08-20 17:08 66 61 - 82 310° 5 - 30.21 30.22 9 SCT017 None
2018-08-20 17:00 66 59 - 77 Variable 5 - 30.21 30.22 9 BKN015 None
2018-08-20 16:00 64 59 - 82 Variable 2 - 30.24 30.24 9 OVC011 None
2018-08-20 15:03 63 59 - 88 350° 3 - 30.25 30.25 9 OVC011 None
2018-08-20 15:00 63 59 - 88 360° 3 - 30.25 30.25 9 BKN009 OVC013 None
2018-08-20 14:43 63 59 - 88 10° 3 - 30.25 30.26 9 BKN007 OVC013 None
2018-08-20 14:00 61 59 - 93 20° 3 - 30.25 30.26 9 OVC005 None

Support USWX by starting your Amazon purchase here.